createdAt,value
2019-02-07T00:01:10.254Z,101.72
2019-02-07T00:03:40.571Z,86.55
2019-02-07T00:06:11.423Z,81.42
2019-02-07T00:08:40.942Z,84.60
2019-02-07T00:11:10.359Z,86.82
2019-02-07T00:13:39.885Z,81.25
2019-02-07T00:16:10.843Z,81.95
2019-02-07T00:18:40.888Z,112.42
2019-02-07T00:21:10.360Z,112.57
2019-02-07T00:23:39.876Z,77.72
2019-02-07T00:26:10.560Z,97.08
2019-02-07T00:28:40.082Z,91.40
2019-02-07T00:31:10.863Z,79.87
2019-02-07T00:33:40.495Z,79.87
2019-02-07T00:36:11.377Z,81.37
2019-02-07T00:38:40.832Z,65.78
2019-02-07T00:41:11.713Z,72.35
2019-02-07T00:43:41.226Z,86.70
2019-02-07T00:46:11.126Z,75.05
2019-02-07T00:48:40.651Z,67.25
2019-02-07T00:51:11.363Z,73.97
2019-02-07T00:53:40.886Z,81.92
2019-02-07T00:56:10.392Z,84.50
2019-02-07T00:58:39.846Z,68.67
2019-02-07T01:01:10.730Z,74.65
2019-02-07T01:03:40.256Z,68.35
2019-02-07T01:06:11.039Z,72.92
2019-02-07T01:08:41.055Z,83.90
2019-02-07T01:11:10.544Z,77.35
2019-02-07T01:13:40.063Z,76.12
2019-02-07T01:16:10.891Z,78.85
2019-02-07T01:18:40.372Z,68.30
2019-02-07T01:21:11.591Z,67.08
2019-02-07T01:23:41.085Z,71.53
2019-02-07T01:26:10.599Z,63.68
2019-02-07T01:28:40.493Z,59.13
2019-02-07T01:31:11.206Z,67.47
2019-02-07T01:33:40.691Z,63.52
2019-02-07T01:36:11.410Z,74.03
2019-02-07T01:38:40.973Z,69.32
2019-02-07T01:41:11.728Z,68.37
2019-02-07T01:43:41.377Z,55.88
2019-02-07T01:46:12.114Z,70.90
2019-02-07T01:48:41.602Z,79.55
2019-02-07T01:51:11.194Z,84.72
2019-02-07T01:53:40.682Z,75.95
2019-02-07T01:56:11.611Z,67.87
2019-02-07T01:58:41.095Z,72.72
2019-02-07T02:01:10.608Z,76.22
2019-02-07T02:03:40.100Z,75.52
2019-02-07T02:06:11.018Z,71.87
2019-02-07T02:08:40.508Z,66.02
2019-02-07T02:11:11.332Z,62.48
2019-02-07T02:13:40.810Z,81.35
2019-02-07T02:16:10.420Z,75.20
2019-02-07T02:18:39.916Z,72.72
2019-02-07T02:21:11.032Z,64.80
2019-02-07T02:23:42.012Z,79.80
2019-02-07T02:26:11.568Z,67.50
2019-02-07T02:28:41.078Z,70.17
2019-02-07T02:31:10.576Z,92.80
2019-02-07T02:33:40.098Z,74.17
2019-02-07T02:36:10.968Z,74.97
2019-02-07T02:38:40.516Z,68.60
2019-02-07T02:41:11.601Z,78.72
2019-02-07T02:43:41.118Z,69.22
2019-02-07T02:46:11.920Z,70.47
2019-02-07T02:48:41.434Z,80.28
2019-02-07T02:51:10.927Z,65.30
2019-02-07T02:53:40.455Z,73.90
2019-02-07T02:56:09.878Z,60.75
2019-02-07T02:58:39.398Z,76.53
2019-02-07T03:01:19.578Z,81.45
2019-02-07T03:03:50.773Z,84.52
2019-02-07T03:06:24.816Z,78.78
2019-02-07T03:08:55.921Z,72.60
2019-02-07T03:11:28.332Z,82.17
2019-02-07T03:14:02.269Z,60.92
2019-02-07T03:16:49.983Z,68.60
2019-02-07T03:19:35.884Z,70.05
2019-02-07T03:22:23.740Z,65.55
2019-02-07T03:24:54.903Z,70.80
2019-02-07T03:27:42.442Z,59.30
2019-02-07T03:30:21.091Z,64.25
2019-02-07T03:32:56.434Z,67.53
2019-02-07T03:35:42.973Z,63.52
2019-02-07T03:38:17.242Z,68.97
2019-02-07T03:40:48.959Z,68.97
2019-02-07T03:43:20.124Z,73.00
2019-02-07T03:46:02.283Z,70.87
2019-02-07T03:48:26.657Z,72.37
2019-02-07T03:51:03.667Z,61.23
2019-02-07T03:53:51.178Z,68.33
2019-02-07T03:56:34.128Z,74.70
2019-02-07T03:59:11.128Z,58.65
2019-02-07T04:01:55.458Z,64.97
2019-02-07T04:04:43.003Z,74.58
2019-02-07T04:07:23.470Z,73.05
2019-02-07T04:09:57.489Z,78.10
2019-02-07T04:12:31.101Z,81.20
2019-02-07T04:15:08.071Z,74.87
2019-02-07T04:17:40.497Z,64.87
2019-02-07T04:20:21.875Z,73.75
2019-02-07T04:22:57.107Z,74.87
2019-02-07T04:25:36.852Z,69.25
2019-02-07T04:28:07.983Z,65.45
2019-02-07T04:30:46.335Z,76.12
2019-02-07T04:33:35.520Z,63.05
2019-02-07T04:36:10.511Z,64.65
2019-02-07T04:38:47.378Z,61.77
2019-02-07T04:41:28.482Z,57.55
2019-02-07T04:44:15.716Z,59.27
2019-02-07T04:46:55.627Z,53.35
2019-02-07T04:49:32.749Z,68.67
2019-02-07T04:52:20.159Z,66.02
2019-02-07T04:54:51.320Z,57.95
2019-02-07T04:57:26.535Z,64.27
2019-02-07T05:00:00.926Z,57.65
2019-02-07T05:02:48.605Z,60.75
2019-02-07T05:05:22.665Z,57.13
2019-02-07T05:08:02.640Z,55.70
2019-02-07T05:10:35.393Z,73.50
2019-02-07T05:13:18.426Z,72.58
2019-02-07T05:15:53.766Z,69.27
2019-02-07T05:18:41.546Z,61.77
2019-02-07T05:21:16.648Z,74.12
2019-02-07T05:23:56.873Z,57.50
2019-02-07T05:26:29.733Z,58.15
2019-02-07T05:29:03.558Z,70.92
2019-02-07T05:31:34.718Z,61.45
2019-02-07T05:34:15.021Z,77.53
2019-02-07T05:36:58.191Z,76.20
2019-02-07T05:39:46.127Z,71.42
2019-02-07T05:42:24.547Z,76.55
2019-02-07T05:44:55.681Z,75.72
2019-02-07T05:47:37.032Z,94.80
2019-02-07T05:50:14.260Z,66.37
2019-02-07T05:53:02.965Z,83.85
2019-02-07T05:55:39.812Z,74.25
2019-02-07T05:58:13.636Z,72.32
2019-02-07T06:00:51.895Z,75.47
2019-02-07T06:03:28.812Z,77.17
2019-02-07T06:06:02.627Z,88.30
2019-02-07T06:08:48.555Z,73.20
2019-02-07T06:11:39.058Z,75.35
2019-02-07T06:14:12.679Z,72.25
2019-02-07T06:17:03.368Z,67.82
2019-02-07T06:19:34.518Z,63.13
2019-02-07T06:22:06.939Z,73.25
2019-02-07T06:24:49.817Z,62.93
2019-02-07T06:27:40.962Z,65.55
2019-02-07T06:30:23.285Z,71.47
2019-02-07T06:33:10.336Z,69.65
2019-02-07T06:35:42.750Z,84.07
2019-02-07T06:38:28.911Z,68.62
2019-02-07T06:41:01.447Z,78.47
2019-02-07T06:43:35.547Z,69.42
2019-02-07T06:46:07.878Z,68.78
2019-02-07T06:48:42.106Z,68.25
2019-02-07T06:51:17.523Z,64.35
2019-02-07T06:53:48.614Z,58.60
2019-02-07T06:56:20.939Z,61.10
2019-02-07T06:59:00.883Z,55.50
2019-02-07T07:01:49.703Z,56.33
2019-02-07T07:04:26.518Z,45.58
2019-02-07T07:06:58.947Z,54.88
2019-02-07T07:09:35.863Z,46.85
2019-02-07T07:12:11.081Z,49.55
2019-02-07T07:14:42.178Z,47.75
2019-02-07T07:17:25.032Z,38.20
2019-02-07T07:20:05.483Z,47.83
2019-02-07T07:22:47.015Z,48.85
2019-02-07T07:25:32.929Z,52.20
2019-02-07T07:28:19.325Z,43.78
2019-02-07T07:30:54.348Z,41.70
2019-02-07T07:33:28.180Z,49.90
2019-02-07T07:35:59.267Z,51.53
2019-02-07T07:38:48.339Z,46.20
2019-02-07T07:41:29.807Z,47.08
2019-02-07T07:44:03.667Z,43.28
2019-02-07T07:46:54.283Z,39.65
2019-02-07T07:49:37.343Z,41.23
2019-02-07T07:52:08.799Z,49.23
2019-02-07T07:54:56.490Z,39.80
2019-02-07T07:57:31.559Z,45.83
2019-02-07T08:00:08.288Z,45.25
2019-02-07T08:02:59.416Z,43.17
2019-02-07T08:05:46.895Z,49.15
2019-02-07T08:08:26.722Z,48.60
2019-02-07T08:11:07.912Z,46.42
2019-02-07T08:13:55.256Z,47.93
2019-02-07T08:16:41.640Z,50.90
2019-02-07T08:19:28.954Z,48.28
2019-02-07T08:22:05.358Z,41.88
2019-02-07T08:24:36.531Z,45.23
2019-02-07T08:27:23.816Z,44.67
2019-02-07T08:30:03.885Z,43.35
2019-02-07T08:32:54.799Z,43.23
2019-02-07T08:35:44.010Z,37.80
2019-02-07T08:38:15.072Z,42.40
2019-02-07T08:40:58.373Z,40.60
2019-02-07T08:43:38.200Z,42.88
2019-02-07T08:46:11.857Z,41.25
2019-02-07T08:48:43.020Z,46.55
2019-02-07T08:51:23.076Z,40.83
2019-02-07T08:54:06.348Z,39.85
2019-02-07T08:56:50.683Z,44.30
2019-02-07T08:59:33.606Z,43.13
2019-02-07T09:02:22.063Z,44.77
2019-02-07T09:05:01.968Z,41.25
2019-02-07T09:07:37.618Z,40.45
2019-02-07T09:10:18.194Z,41.35
2019-02-07T09:12:56.815Z,42.50
2019-02-07T09:15:36.738Z,49.83
2019-02-07T09:18:10.308Z,45.88
2019-02-07T09:20:42.159Z,45.75
2019-02-07T09:23:13.309Z,48.42
2019-02-07T09:26:01.235Z,46.65
2019-02-07T09:28:32.893Z,48.95
2019-02-07T09:31:09.924Z,43.75
2019-02-07T09:33:41.091Z,42.30
2019-02-07T09:36:29.750Z,47.85
2019-02-07T09:39:03.606Z,43.70
2019-02-07T09:41:36.202Z,42.83
2019-02-07T09:44:10.111Z,43.80
2019-02-07T09:46:47.423Z,45.28
2019-02-07T09:49:18.598Z,48.52
2019-02-07T09:52:05.816Z,44.25
2019-02-07T09:54:36.995Z,42.45
2019-02-07T09:57:09.336Z,50.48
2019-02-07T09:59:55.527Z,46.10
2019-02-07T10:02:40.452Z,41.20
2019-02-07T10:05:12.887Z,46.92
2019-02-07T10:07:48.141Z,41.98
2019-02-07T10:10:28.473Z,48.83
2019-02-07T10:13:02.510Z,45.98
2019-02-07T10:15:38.171Z,49.80
2019-02-07T10:18:32.748Z,44.38
2019-02-07T10:21:11.609Z,45.67
2019-02-07T10:23:45.471Z,44.85
2019-02-07T10:26:34.367Z,43.42
2019-02-07T10:29:21.559Z,48.02
2019-02-07T10:31:58.620Z,50.88
2019-02-07T10:34:45.602Z,43.70
2019-02-07T10:37:18.028Z,49.23
2019-02-07T10:39:52.432Z,42.00
2019-02-07T10:42:25.062Z,47.30
2019-02-07T10:44:56.234Z,46.88
2019-02-07T10:47:30.437Z,44.93
2019-02-07T10:50:07.515Z,48.58
2019-02-07T10:52:58.347Z,40.10
2019-02-07T10:55:29.511Z,54.80
2019-02-07T10:58:17.177Z,41.65
2019-02-07T11:00:49.541Z,43.85
2019-02-07T11:03:36.835Z,44.98
2019-02-07T11:06:26.479Z,46.37
2019-02-07T11:09:03.309Z,42.62
2019-02-07T11:11:35.945Z,45.15
2019-02-07T11:14:07.368Z,47.43
2019-02-07T11:16:47.542Z,42.23
2019-02-07T11:19:35.075Z,48.48
2019-02-07T11:22:06.627Z,42.15
2019-02-07T11:24:54.455Z,43.78
2019-02-07T11:27:31.769Z,44.10
2019-02-07T11:30:05.726Z,44.20
2019-02-07T11:32:56.587Z,41.05
2019-02-07T11:35:43.728Z,44.65
2019-02-07T11:38:17.778Z,39.98
2019-02-07T11:41:06.751Z,43.63
2019-02-07T11:43:43.905Z,45.52
2019-02-07T11:46:37.298Z,45.67
2019-02-07T11:49:11.396Z,45.33
2019-02-07T11:52:00.460Z,46.77
2019-02-07T11:54:40.710Z,46.68
2019-02-07T11:57:16.892Z,45.78
2019-02-07T12:00:04.491Z,47.67
2019-02-07T12:02:46.080Z,53.60
2019-02-07T12:05:33.628Z,50.90
2019-02-07T12:08:17.051Z,44.75
2019-02-07T12:11:04.353Z,46.33
2019-02-07T12:13:44.542Z,49.98
2019-02-07T12:16:22.614Z,47.30
2019-02-07T12:19:17.696Z,53.17
2019-02-07T12:21:45.524Z,51.50
2019-02-07T12:24:31.603Z,53.75
2019-02-07T12:27:05.426Z,54.63
2019-02-07T12:29:36.650Z,50.58
2019-02-07T12:32:12.607Z,57.75
2019-02-07T12:34:46.687Z,49.60
2019-02-07T12:37:22.035Z,43.42
2019-02-07T12:39:59.190Z,51.58
2019-02-07T12:42:39.162Z,54.40
2019-02-07T12:45:11.416Z,52.48
2019-02-07T12:47:52.280Z,51.15
2019-02-07T12:50:39.965Z,46.77
2019-02-07T12:53:17.138Z,51.48
2019-02-07T12:55:52.415Z,47.67
2019-02-07T12:58:26.902Z,53.05
2019-02-07T13:00:58.095Z,60.95
2019-02-07T13:03:45.346Z,63.38
2019-02-07T13:06:19.548Z,54.88
2019-02-07T13:08:50.707Z,57.45
2019-02-07T13:11:39.412Z,54.08
2019-02-07T13:14:10.560Z,61.58
2019-02-07T13:16:41.678Z,57.90
2019-02-07T13:19:40.002Z,60.65
2019-02-07T13:22:04.928Z,53.17
2019-02-07T13:24:36.023Z,63.90
2019-02-07T13:27:10.255Z,60.70
2019-02-07T13:29:57.997Z,64.07
2019-02-07T13:32:45.340Z,62.25
2019-02-07T13:35:25.472Z,65.28
2019-02-07T13:37:56.598Z,56.70
2019-02-07T13:40:45.516Z,75.12
2019-02-07T13:43:19.143Z,54.08
2019-02-07T13:45:51.707Z,64.97
2019-02-07T13:48:39.308Z,68.37
2019-02-07T13:51:10.866Z,67.92
2019-02-07T13:53:44.714Z,59.88
2019-02-07T13:56:33.383Z,66.45
2019-02-07T13:59:04.478Z,81.97
2019-02-07T14:01:38.931Z,71.50
2019-02-07T14:04:12.792Z,73.00
2019-02-07T14:06:46.336Z,65.42
2019-02-07T14:09:20.179Z,67.32
2019-02-07T14:11:58.458Z,86.25
2019-02-07T14:14:36.791Z,68.15
2019-02-07T14:17:18.345Z,66.05
2019-02-07T14:20:03.167Z,71.15
2019-02-07T14:22:28.474Z,74.22
2019-02-07T14:25:08.798Z,85.05
2019-02-07T14:27:43.931Z,74.27
2019-02-07T14:30:30.252Z,69.77
2019-02-07T14:33:03.889Z,73.78
2019-02-07T14:35:43.857Z,73.65
2019-02-07T14:38:14.972Z,71.07
2019-02-07T14:40:53.254Z,76.25
2019-02-07T14:43:24.302Z,67.15
2019-02-07T14:45:56.766Z,86.02
2019-02-07T14:48:26.757Z,93.67
2019-02-07T14:50:56.317Z,94.55
2019-02-07T14:53:25.800Z,89.80
2019-02-07T14:55:56.788Z,75.05
2019-02-07T14:58:26.198Z,112.08
2019-02-07T15:00:55.671Z,93.67
2019-02-07T15:03:25.562Z,98.80
2019-02-07T15:05:55.004Z,108.25
2019-02-07T15:08:24.428Z,88.07
2019-02-07T15:10:55.147Z,92.57
2019-02-07T15:13:24.783Z,98.52
2019-02-07T15:15:54.244Z,103.25
2019-02-07T15:18:24.222Z,80.67
2019-02-07T15:20:54.967Z,116.67
2019-02-07T15:23:24.384Z,75.05
2019-02-07T15:25:55.199Z,69.60
2019-02-07T15:28:24.719Z,109.12
2019-02-07T15:30:54.205Z,99.22
2019-02-07T15:33:24.029Z,68.50
2019-02-07T15:35:54.919Z,101.38
2019-02-07T15:38:24.439Z,96.10
2019-02-07T15:40:55.128Z,101.10
2019-02-07T15:43:24.642Z,62.60
2019-02-07T15:45:55.689Z,103.83
2019-02-07T15:48:25.139Z,75.05
2019-02-07T15:50:55.927Z,109.83
2019-02-07T15:53:25.560Z,116.93
2019-02-07T15:55:55.215Z,109.63
2019-02-07T15:58:26.302Z,73.87
2019-02-07T16:01:02.174Z,93.70
2019-02-07T16:03:33.835Z,78.20
2019-02-07T16:06:06.452Z,137.45
2019-02-07T16:08:35.946Z,71.22
2019-02-07T16:11:06.736Z,61.55
2019-02-07T16:13:36.586Z,63.30
2019-02-07T16:16:06.081Z,58.70
2019-02-07T16:18:35.597Z,114.03
2019-02-07T16:21:05.161Z,73.10
2019-02-07T16:23:34.710Z,114.52
2019-02-07T16:26:04.238Z,71.60
2019-02-07T16:28:33.759Z,77.17
2019-02-07T16:31:03.243Z,75.90
2019-02-07T16:33:32.859Z,63.78
2019-02-07T16:36:03.840Z,92.53
2019-02-07T16:38:33.350Z,82.50
2019-02-07T16:41:04.302Z,69.15
2019-02-07T16:43:33.897Z,70.35
2019-02-07T16:46:03.431Z,66.07
2019-02-07T16:48:32.895Z,82.22
2019-02-07T16:51:02.303Z,84.52
2019-02-07T16:53:31.844Z,59.70
2019-02-07T16:56:02.937Z,61.53
2019-02-07T16:58:32.521Z,60.55
2019-02-07T17:01:03.351Z,61.48
2019-02-07T17:03:32.976Z,59.53
2019-02-07T17:06:04.040Z,56.55
2019-02-07T17:08:33.632Z,54.33
2019-02-07T17:11:04.548Z,60.60
2019-02-07T17:13:34.107Z,62.15
2019-02-07T17:16:03.616Z,59.40
2019-02-07T17:18:33.167Z,70.40
2019-02-07T17:21:11.590Z,58.45
2019-02-07T17:23:33.799Z,72.00
2019-02-07T17:26:03.395Z,62.95
2019-02-07T17:28:32.878Z,54.80
2019-02-07T17:31:03.794Z,59.58
2019-02-07T17:33:33.348Z,64.53
2019-02-07T17:36:02.934Z,77.50
2019-02-07T17:38:32.417Z,62.10
2019-02-07T17:41:03.416Z,67.70
2019-02-07T17:43:32.966Z,81.17
2019-02-07T17:46:02.561Z,70.92
2019-02-07T17:48:32.048Z,59.45
2019-02-07T17:51:02.968Z,59.70
2019-02-07T17:53:32.852Z,62.38
2019-02-07T17:56:02.439Z,69.12
2019-02-07T17:58:31.995Z,65.25
2019-02-07T18:01:04.519Z,59.53
2019-02-07T18:03:34.091Z,65.97
2019-02-07T18:06:03.768Z,71.22
2019-02-07T18:08:33.807Z,55.95
2019-02-07T18:11:04.795Z,60.88
2019-02-07T18:13:34.451Z,55.30
2019-02-07T18:16:05.506Z,52.15
2019-02-07T18:18:35.058Z,64.70
2019-02-07T18:21:04.655Z,47.43
2019-02-07T18:23:34.831Z,55.92
2019-02-07T18:26:04.425Z,68.12
2019-02-07T18:28:34.139Z,48.05
2019-02-07T18:31:05.198Z,51.20
2019-02-07T18:33:35.495Z,47.67
2019-02-07T18:36:07.320Z,50.92
2019-02-07T18:38:37.999Z,45.38
2019-02-07T18:41:09.180Z,54.18
2019-02-07T18:43:39.171Z,50.88
2019-02-07T18:46:11.069Z,49.93
2019-02-07T18:48:40.983Z,46.40
2019-02-07T18:51:12.099Z,48.13
2019-02-07T18:53:42.179Z,51.10
2019-02-07T18:56:12.453Z,55.63
2019-02-07T18:58:42.623Z,51.30
2019-02-07T19:01:13.744Z,53.25
2019-02-07T19:03:43.409Z,58.58
2019-02-07T19:06:13.446Z,50.25
2019-02-07T19:08:43.160Z,46.83
2019-02-07T19:11:14.025Z,51.30
2019-02-07T19:13:43.714Z,52.70
2019-02-07T19:16:13.403Z,48.83
2019-02-07T19:18:43.202Z,55.52
2019-02-07T19:21:13.093Z,61.73
2019-02-07T19:23:42.784Z,70.57
2019-02-07T19:26:13.419Z,57.15
2019-02-07T19:28:43.346Z,54.77
2019-02-07T19:31:14.314Z,65.95
2019-02-07T19:33:44.935Z,55.10
2019-02-07T19:36:16.251Z,50.85
2019-02-07T19:38:46.391Z,52.08
2019-02-07T19:41:16.387Z,48.68
2019-02-07T19:43:46.830Z,57.20
2019-02-07T19:46:17.565Z,55.12
2019-02-07T19:48:47.607Z,98.45
2019-02-07T19:51:18.175Z,46.55
2019-02-07T19:53:48.224Z,46.23
2019-02-07T19:56:19.538Z,48.15
2019-02-07T19:58:49.626Z,48.23
2019-02-07T20:01:19.674Z,41.40
2019-02-07T20:03:49.670Z,49.08
2019-02-07T20:06:19.813Z,40.28
2019-02-07T20:08:49.748Z,41.88
2019-02-07T20:11:19.786Z,49.13
2019-02-07T20:13:49.775Z,55.17
2019-02-07T20:16:19.806Z,40.90
2019-02-07T20:18:49.631Z,46.90
2019-02-07T20:21:19.412Z,65.57
2019-02-07T20:23:50.287Z,45.15
2019-02-07T20:26:21.563Z,55.92
2019-02-07T20:28:51.837Z,55.35
2019-02-07T20:31:22.808Z,49.08
2019-02-07T20:33:52.434Z,46.63
2019-02-07T20:36:23.212Z,47.10
2019-02-07T20:38:52.874Z,44.55
2019-02-07T20:41:23.874Z,37.28
2019-02-07T20:43:53.547Z,39.63
2019-02-07T20:46:23.388Z,34.13
2019-02-07T20:48:53.078Z,35.08
2019-02-07T20:51:22.715Z,37.30
2019-02-07T20:53:52.694Z,30.62
2019-02-07T20:56:23.678Z,27.87
2019-02-07T20:58:53.251Z,32.50
2019-02-07T21:01:22.867Z,27.95
2019-02-07T21:03:52.701Z,29.77
2019-02-07T21:06:22.359Z,30.92
2019-02-07T21:08:51.948Z,47.65
2019-02-07T21:11:21.767Z,34.60
2019-02-07T21:13:51.379Z,32.40
2019-02-07T21:16:22.232Z,36.42
2019-02-07T21:18:51.688Z,36.83
2019-02-07T21:21:21.251Z,37.88
2019-02-07T21:23:50.772Z,35.33
2019-02-07T21:26:21.522Z,32.33
2019-02-07T21:28:51.046Z,30.82
2019-02-07T21:31:21.907Z,32.80
2019-02-07T21:33:51.384Z,27.80
2019-02-07T21:36:22.342Z,31.90
2019-02-07T21:38:51.863Z,29.77
2019-02-07T21:41:22.551Z,27.60
2019-02-07T21:43:52.159Z,30.77
2019-02-07T21:46:21.647Z,32.98
2019-02-07T21:48:51.162Z,28.00
2019-02-07T21:51:22.279Z,29.67
2019-02-07T21:53:51.726Z,41.55
2019-02-07T21:56:21.139Z,37.20
2019-02-07T21:58:50.659Z,40.88
